createdAt,value
2022-10-16T00:01:39.906Z,20.30
2022-10-16T00:04:06.980Z,20.83
2022-10-16T00:06:34.001Z,18.73
2022-10-16T00:09:00.933Z,17.08
2022-10-16T00:11:34.776Z,17.70
2022-10-16T00:14:04.630Z,21.42
2022-10-16T00:16:32.491Z,21.65
2022-10-16T00:18:59.617Z,20.88
2022-10-16T00:21:29.357Z,20.13
2022-10-16T00:24:00.895Z,20.65
2022-10-16T00:26:30.768Z,24.38
2022-10-16T00:28:57.864Z,18.17
2022-10-16T00:31:25.821Z,21.63
2022-10-16T00:33:53.290Z,18.98
2022-10-16T00:36:24.857Z,19.25
2022-10-16T00:38:55.674Z,20.08
2022-10-16T00:41:26.054Z,18.73
2022-10-16T00:44:03.029Z,20.13
2022-10-16T00:46:43.261Z,19.92
2022-10-16T00:49:21.240Z,19.83
2022-10-16T00:51:51.876Z,20.25
2022-10-16T00:54:29.256Z,20.77
2022-10-16T00:57:01.329Z,18.38
2022-10-16T00:59:41.040Z,18.95
2022-10-16T01:02:14.161Z,21.15
2022-10-16T01:04:51.841Z,17.13
2022-10-16T01:07:31.608Z,17.38
2022-10-16T01:10:17.185Z,18.00
2022-10-16T01:12:55.475Z,19.33
2022-10-16T01:15:34.189Z,16.95
2022-10-16T01:18:27.619Z,15.82
2022-10-16T01:21:00.194Z,17.13
2022-10-16T01:23:57.780Z,16.42
2022-10-16T01:26:33.871Z,18.48
2022-10-16T01:29:17.849Z,16.00
2022-10-16T01:31:53.582Z,15.20
2022-10-16T01:34:38.139Z,15.63
2022-10-16T01:37:19.689Z,15.93
2022-10-16T01:39:51.238Z,15.32
2022-10-16T01:42:25.090Z,14.07
2022-10-16T01:44:54.704Z,16.92
2022-10-16T01:47:28.136Z,15.68
2022-10-16T01:49:59.566Z,15.05
2022-10-16T01:52:30.444Z,16.77
2022-10-16T01:55:00.613Z,20.13
2022-10-16T01:57:31.491Z,16.73
2022-10-16T02:00:08.096Z,15.52
2022-10-16T02:02:43.253Z,15.80
2022-10-16T02:05:31.604Z,14.27
2022-10-16T02:08:00.486Z,17.00
2022-10-16T02:10:32.491Z,14.30
2022-10-16T02:13:31.741Z,13.63
2022-10-16T02:15:58.623Z,13.95
2022-10-16T02:18:30.111Z,14.63
2022-10-16T02:21:07.967Z,17.20
2022-10-16T02:24:08.034Z,15.07
2022-10-16T02:26:52.103Z,14.90
2022-10-16T02:29:26.947Z,14.48
2022-10-16T02:32:04.138Z,14.73
2022-10-16T02:34:33.679Z,14.82
2022-10-16T02:37:04.149Z,15.88
2022-10-16T02:39:32.006Z,17.75
2022-10-16T02:41:58.911Z,14.68
2022-10-16T02:44:26.128Z,15.40
2022-10-16T02:46:52.973Z,16.10
2022-10-16T02:49:19.873Z,15.88
2022-10-16T02:51:46.684Z,16.25
2022-10-16T02:54:14.044Z,15.43
2022-10-16T02:56:40.856Z,16.30
2022-10-16T02:59:07.690Z,17.80
2022-10-16T03:01:34.574Z,15.73
2022-10-16T03:04:01.434Z,15.27
2022-10-16T03:06:28.234Z,16.55
2022-10-16T03:08:55.061Z,16.52
2022-10-16T03:11:21.926Z,17.65
2022-10-16T03:13:48.758Z,17.08
2022-10-16T03:16:15.666Z,16.60
2022-10-16T03:18:42.673Z,17.20
2022-10-16T03:21:09.500Z,16.40
2022-10-16T03:23:36.445Z,15.40
2022-10-16T03:26:03.475Z,15.90
2022-10-16T03:28:30.339Z,13.73
2022-10-16T03:30:57.309Z,15.40
2022-10-16T03:33:24.155Z,14.20
2022-10-16T03:35:55.748Z,16.38
2022-10-16T03:38:23.261Z,17.05
2022-10-16T03:40:50.081Z,14.02
2022-10-16T03:43:17.241Z,14.70
2022-10-16T03:45:44.219Z,15.77
2022-10-16T03:48:11.298Z,14.75
2022-10-16T03:50:38.452Z,15.75
2022-10-16T03:53:05.455Z,15.52
2022-10-16T03:55:32.299Z,15.00
2022-10-16T03:57:59.203Z,15.30
2022-10-16T04:00:26.323Z,15.32
2022-10-16T04:02:53.248Z,15.55
2022-10-16T04:05:20.149Z,15.02
2022-10-16T04:07:47.007Z,16.60
2022-10-16T04:10:13.828Z,20.33
2022-10-16T04:12:40.724Z,17.83
2022-10-16T04:15:08.342Z,17.27
2022-10-16T04:17:35.227Z,15.32
2022-10-16T04:20:02.155Z,16.92
2022-10-16T04:22:29.110Z,15.98
2022-10-16T04:24:55.969Z,16.83
2022-10-16T04:27:22.870Z,15.52
2022-10-16T04:29:49.754Z,15.57
2022-10-16T04:32:16.926Z,13.90
2022-10-16T04:34:43.789Z,15.75
2022-10-16T04:37:10.613Z,14.85
2022-10-16T04:39:37.434Z,16.95
2022-10-16T04:42:04.440Z,15.55
2022-10-16T04:44:31.220Z,15.32
2022-10-16T04:46:58.130Z,15.80
2022-10-16T04:49:25.163Z,16.27
2022-10-16T04:51:51.940Z,15.73
2022-10-16T04:54:18.754Z,16.65
2022-10-16T04:56:48.444Z,18.70
2022-10-16T04:59:16.139Z,18.38
2022-10-16T05:01:43.009Z,16.48
2022-10-16T05:04:11.045Z,20.10
2022-10-16T05:06:39.590Z,18.73
2022-10-16T05:09:07.121Z,16.50
2022-10-16T05:11:34.769Z,17.55
2022-10-16T05:14:02.088Z,17.90
2022-10-16T05:16:29.142Z,18.33
2022-10-16T05:19:00.020Z,17.17
2022-10-16T05:21:37.227Z,17.67
2022-10-16T05:24:04.218Z,16.92
2022-10-16T05:26:31.019Z,18.83
2022-10-16T05:28:57.913Z,17.60
2022-10-16T05:31:24.823Z,19.25
2022-10-16T05:33:51.643Z,18.23
2022-10-16T05:36:19.249Z,17.58
2022-10-16T05:38:46.067Z,16.10
2022-10-16T05:41:12.928Z,20.13
2022-10-16T05:43:39.891Z,16.52
2022-10-16T05:46:07.270Z,20.55
2022-10-16T05:48:34.239Z,20.45
2022-10-16T05:51:08.011Z,19.92
2022-10-16T05:53:38.175Z,18.90
2022-10-16T05:56:07.746Z,16.45
2022-10-16T05:58:37.069Z,16.90
2022-10-16T06:01:08.077Z,16.73
2022-10-16T06:03:35.735Z,17.73
2022-10-16T06:06:18.023Z,17.02
2022-10-16T06:08:46.580Z,16.67
2022-10-16T06:11:19.630Z,19.40
2022-10-16T06:13:50.458Z,16.38
2022-10-16T06:16:17.649Z,15.93
2022-10-16T06:18:44.626Z,16.25
2022-10-16T06:21:19.077Z,17.27
2022-10-16T06:23:49.049Z,15.88
2022-10-16T06:26:19.802Z,15.93
2022-10-16T06:28:47.873Z,16.98
2022-10-16T06:31:15.471Z,14.57
2022-10-16T06:33:42.517Z,16.65
2022-10-16T06:36:13.642Z,16.35
2022-10-16T06:38:41.441Z,15.45
2022-10-16T06:41:14.130Z,15.57
2022-10-16T06:43:41.436Z,14.23
2022-10-16T06:46:12.186Z,17.10
2022-10-16T06:48:39.487Z,16.05
2022-10-16T06:51:24.566Z,17.45
2022-10-16T06:54:03.030Z,17.50
2022-10-16T06:56:33.104Z,18.13
2022-10-16T06:59:01.305Z,18.95
2022-10-16T07:01:29.474Z,18.90
2022-10-16T07:03:56.327Z,17.95
2022-10-16T07:06:26.238Z,17.77
2022-10-16T07:08:53.779Z,17.13
2022-10-16T07:11:24.473Z,17.02
2022-10-16T07:13:54.803Z,16.85
2022-10-16T07:16:29.791Z,17.10
2022-10-16T07:18:59.933Z,16.80
2022-10-16T07:21:30.626Z,16.48
2022-10-16T07:24:01.981Z,20.65
2022-10-16T07:26:32.010Z,17.08
2022-10-16T07:28:59.369Z,17.77
2022-10-16T07:31:26.809Z,17.38
2022-10-16T07:33:54.312Z,17.70
2022-10-16T07:36:22.683Z,16.25
2022-10-16T07:38:51.068Z,17.17
2022-10-16T07:41:20.934Z,17.05
2022-10-16T07:43:50.817Z,15.90
2022-10-16T07:46:20.822Z,16.63
2022-10-16T07:48:48.934Z,17.00
2022-10-16T07:51:23.761Z,16.00
2022-10-16T07:56:20.243Z,15.05
2022-10-16T07:58:47.442Z,15.65
2022-10-16T08:01:17.158Z,15.55
2022-10-16T08:03:50.922Z,14.82
2022-10-16T08:06:23.522Z,15.95
2022-10-16T08:08:54.284Z,15.20
2022-10-16T08:11:21.169Z,15.23
2022-10-16T08:13:48.070Z,15.20
2022-10-16T08:16:15.101Z,14.85
2022-10-16T08:18:42.537Z,14.35
2022-10-16T08:21:21.188Z,13.85
2022-10-16T08:23:53.049Z,13.15
2022-10-16T08:26:26.120Z,12.52
2022-10-16T08:28:53.203Z,11.50
2022-10-16T08:31:21.151Z,12.60
2022-10-16T08:33:48.768Z,11.60
2022-10-16T08:36:17.103Z,11.30
2022-10-16T08:38:44.568Z,10.93
2022-10-16T08:41:25.473Z,11.68
2022-10-16T08:44:29.266Z,10.57
2022-10-16T08:47:37.706Z,9.75
2022-10-16T08:50:13.880Z,9.13
2022-10-16T08:52:45.551Z,10.13
2022-10-16T08:55:51.970Z,10.18
2022-10-16T08:58:27.704Z,9.00
2022-10-16T09:00:58.159Z,10.38
2022-10-16T09:03:55.321Z,7.93
2022-10-16T09:06:41.590Z,7.20
2022-10-16T09:09:23.314Z,7.90
2022-10-16T09:12:12.750Z,8.73
2022-10-16T09:14:48.421Z,8.63
2022-10-16T09:17:31.182Z,9.18
2022-10-16T09:20:13.341Z,9.40
2022-10-16T09:22:40.790Z,9.43
2022-10-16T09:25:21.688Z,8.60
2022-10-16T09:27:54.000Z,8.75
2022-10-16T09:30:22.929Z,8.32
2022-10-16T09:32:54.547Z,8.10
2022-10-16T09:35:32.358Z,8.32
2022-10-16T09:37:59.418Z,8.77
2022-10-16T09:40:37.639Z,8.98
2022-10-16T09:43:30.476Z,8.85
2022-10-16T09:46:06.356Z,9.00
2022-10-16T09:48:45.758Z,8.50
2022-10-16T09:51:32.877Z,7.53
2022-10-16T09:54:10.937Z,7.78
2022-10-16T09:56:42.652Z,7.93
2022-10-16T09:59:18.383Z,7.03
2022-10-16T10:01:54.605Z,6.93
2022-10-16T10:04:24.671Z,6.93
2022-10-16T10:06:57.903Z,6.13
2022-10-16T10:09:34.050Z,5.90
2022-10-16T10:12:06.301Z,5.28
2022-10-16T10:14:49.106Z,4.88
2022-10-16T10:17:19.286Z,5.03
2022-10-16T10:20:12.603Z,5.53
2022-10-16T10:22:47.046Z,3.85
2022-10-16T10:25:13.883Z,3.72
2022-10-16T10:28:04.055Z,4.63
2022-10-16T10:31:03.204Z,4.63
2022-10-16T10:33:39.156Z,3.80
2022-10-16T10:36:32.854Z,4.57
2022-10-16T10:39:09.875Z,4.70
2022-10-16T10:41:58.209Z,2.65
2022-10-16T10:44:44.594Z,3.35
2022-10-16T10:47:53.015Z,3.10
2022-10-16T10:50:40.860Z,2.10
2022-10-16T10:53:29.666Z,1.10
2022-10-16T10:56:24.242Z,2.67
2022-10-16T10:59:22.801Z,1.88
2022-10-16T11:02:10.725Z,1.35
2022-10-16T11:05:24.189Z,1.13
2022-10-16T11:08:03.200Z,1.40
2022-10-16T11:10:46.593Z,0.20
2022-10-16T11:13:37.803Z,1.33
2022-10-16T11:16:23.030Z,0.88
2022-10-16T11:19:20.979Z,0.50
2022-10-16T11:22:26.984Z,0.73
2022-10-16T11:25:26.956Z,1.95
2022-10-16T11:28:27.978Z,0.80
2022-10-16T11:31:08.535Z,2.30
2022-10-16T11:33:50.615Z,1.08
2022-10-16T11:36:45.882Z,1.08
2022-10-16T11:42:09.281Z,2.60
2022-10-16T11:45:03.382Z,0.65
2022-10-16T11:47:59.934Z,1.25
2022-10-16T11:50:51.200Z,2.58
2022-10-16T11:53:56.236Z,1.38
2022-10-16T11:56:23.785Z,1.33
2022-10-16T11:59:24.102Z,1.00
2022-10-16T12:02:26.959Z,1.35
2022-10-16T12:05:24.233Z,0.85
2022-10-16T12:08:13.336Z,0.47
2022-10-16T12:10:44.384Z,0.93
2022-10-16T12:13:40.828Z,0.50
2022-10-16T12:16:13.239Z,0.65
2022-10-16T12:18:48.424Z,0.45
2022-10-16T12:21:20.030Z,0.75
2022-10-16T12:24:01.175Z,1.65
2022-10-16T12:26:49.810Z,0.60
2022-10-16T12:29:35.345Z,0.60
2022-10-16T12:32:06.119Z,1.10
2022-10-16T12:34:45.941Z,4.13
2022-10-16T12:37:47.442Z,2.03
2022-10-16T12:40:36.769Z,1.73
2022-10-16T12:43:24.916Z,1.25
2022-10-16T12:46:24.397Z,3.65
2022-10-16T12:49:08.328Z,1.08
2022-10-16T12:51:39.135Z,1.77
2022-10-16T12:54:19.919Z,2.67
2022-10-16T12:56:58.902Z,2.67
2022-10-16T12:59:50.805Z,1.48
2022-10-16T13:02:54.740Z,0.82
2022-10-16T13:06:15.025Z,1.10
2022-10-16T13:09:31.374Z,1.27
2022-10-16T13:12:18.540Z,1.25
2022-10-16T13:15:21.705Z,0.88
2022-10-16T13:18:04.613Z,0.80
2022-10-16T13:21:05.812Z,0.85
2022-10-16T13:24:15.509Z,1.05
2022-10-16T13:27:08.220Z,1.55
2022-10-16T13:29:35.732Z,3.40
2022-10-16T13:32:12.839Z,0.90
2022-10-16T13:34:49.673Z,2.13
2022-10-16T13:37:24.112Z,0.55
2022-10-16T13:39:53.876Z,0.73
2022-10-16T13:42:28.524Z,1.15
2022-10-16T13:47:30.543Z,1.00
2022-10-16T13:50:18.964Z,1.75
2022-10-16T13:52:46.409Z,1.75
2022-10-16T13:55:19.531Z,1.52
2022-10-16T13:57:46.669Z,1.13
2022-10-16T14:00:31.057Z,1.42
2022-10-16T14:03:15.539Z,1.77
2022-10-16T14:05:52.516Z,3.05
2022-10-16T14:08:20.091Z,2.03
2022-10-16T14:11:01.791Z,2.20
2022-10-16T14:13:44.587Z,1.23
2022-10-16T14:16:22.424Z,1.45
2022-10-16T14:19:06.319Z,2.03
2022-10-16T14:21:35.375Z,1.48
2022-10-16T14:24:32.128Z,1.98
2022-10-16T14:27:00.764Z,2.95
2022-10-16T14:29:32.452Z,1.45
2022-10-16T14:32:08.433Z,3.00
2022-10-16T14:34:41.079Z,2.70
2022-10-16T14:37:37.463Z,2.13
2022-10-16T14:40:05.703Z,1.70
2022-10-16T14:42:32.557Z,1.70
2022-10-16T14:44:59.614Z,2.25
2022-10-16T14:47:28.333Z,1.80
2022-10-16T14:49:56.949Z,2.90
2022-10-16T14:52:24.099Z,1.85
2022-10-16T14:54:55.500Z,1.88
2022-10-16T14:57:28.654Z,1.23
2022-10-16T14:59:56.008Z,1.10
2022-10-16T15:02:34.052Z,1.20
2022-10-16T15:05:33.069Z,1.60
2022-10-16T15:07:59.947Z,2.08
2022-10-16T15:10:29.686Z,2.05
2022-10-16T15:12:56.593Z,1.75
2022-10-16T15:15:43.050Z,1.55
2022-10-16T15:18:09.959Z,1.17
2022-10-16T15:20:39.923Z,2.70
2022-10-16T15:23:20.597Z,2.35
2022-10-16T15:25:52.406Z,2.53
2022-10-16T15:28:21.564Z,1.23
2022-10-16T15:30:52.804Z,1.45
2022-10-16T15:33:35.809Z,2.58
2022-10-16T15:36:06.089Z,3.95
2022-10-16T15:38:33.058Z,1.92
2022-10-16T15:40:59.896Z,1.40
2022-10-16T15:43:27.136Z,3.38
2022-10-16T15:46:15.390Z,1.80
2022-10-16T15:48:42.208Z,2.95
2022-10-16T15:51:10.404Z,3.53
2022-10-16T15:53:37.550Z,2.83
2022-10-16T15:56:06.368Z,1.77
2022-10-16T15:58:34.732Z,3.17
2022-10-16T16:01:02.758Z,3.45
2022-10-16T16:03:31.382Z,2.28
2022-10-16T16:06:04.194Z,3.05
2022-10-16T16:08:31.036Z,2.97
2022-10-16T16:11:03.434Z,4.07
2022-10-16T16:13:30.424Z,1.55
2022-10-16T16:15:57.637Z,6.07
2022-10-16T16:18:25.128Z,9.25
2022-10-16T16:20:53.191Z,7.22
2022-10-16T16:23:20.863Z,6.47
2022-10-16T16:26:22.687Z,5.20
2022-10-16T16:28:49.751Z,2.50
2022-10-16T16:31:16.687Z,3.70
2022-10-16T16:33:43.687Z,4.80
2022-10-16T16:36:15.470Z,4.88
2022-10-16T16:38:42.904Z,4.53
2022-10-16T16:41:22.802Z,3.05
2022-10-16T16:43:52.226Z,1.73
2022-10-16T16:46:19.559Z,1.80
2022-10-16T16:48:47.533Z,2.72
2022-10-16T16:51:19.115Z,5.00
2022-10-16T16:53:54.846Z,1.80
2022-10-16T16:56:24.262Z,3.45
2022-10-16T16:58:55.557Z,3.60
2022-10-16T17:01:25.824Z,7.03
2022-10-16T17:03:55.811Z,3.95
2022-10-16T17:06:26.952Z,3.05
2022-10-16T17:08:54.480Z,3.17
2022-10-16T17:11:27.914Z,7.88
2022-10-16T17:13:57.983Z,2.38
2022-10-16T17:16:33.525Z,2.50
2022-10-16T17:19:03.274Z,4.10
2022-10-16T17:21:31.728Z,2.38
2022-10-16T17:23:59.488Z,3.70
2022-10-16T17:26:27.271Z,2.22
2022-10-16T17:29:00.993Z,8.60
2022-10-16T17:31:32.350Z,3.10
2022-10-16T17:34:01.246Z,3.17
2022-10-16T17:36:30.938Z,3.78
2022-10-16T17:39:04.696Z,3.85
2022-10-16T17:41:33.373Z,2.80
2022-10-16T17:44:00.966Z,1.67
2022-10-16T17:46:29.532Z,6.20
2022-10-16T17:48:56.546Z,2.63
2022-10-16T17:51:29.491Z,2.08
2022-10-16T17:53:59.353Z,2.25
2022-10-16T17:56:27.969Z,2.78
2022-10-16T17:59:03.917Z,4.70
2022-10-16T18:01:35.718Z,4.50
2022-10-16T18:04:07.395Z,3.85
2022-10-16T18:06:35.775Z,4.15
2022-10-16T18:09:04.776Z,4.03
2022-10-16T18:11:32.217Z,5.70
2022-10-16T18:14:00.625Z,5.13
2022-10-16T18:16:30.851Z,6.05
2022-10-16T18:18:58.822Z,3.33
2022-10-16T18:21:27.817Z,4.57
2022-10-16T18:23:56.553Z,5.45
2022-10-16T18:26:24.013Z,8.07
2022-10-16T18:28:57.265Z,4.30
2022-10-16T18:31:28.487Z,6.10
2022-10-16T18:33:56.147Z,5.88
2022-10-16T18:36:30.813Z,6.43
2022-10-16T18:38:59.788Z,7.30
2022-10-16T18:41:27.783Z,5.68
2022-10-16T18:43:56.351Z,5.47
2022-10-16T18:46:26.083Z,5.72
2022-10-16T18:48:54.496Z,3.35
2022-10-16T18:51:32.314Z,5.97
2022-10-16T18:54:03.500Z,3.33
2022-10-16T18:56:32.245Z,3.67
2022-10-16T18:59:02.210Z,6.22
2022-10-16T19:01:33.577Z,5.30
2022-10-16T19:04:10.137Z,4.18
2022-10-16T19:06:42.197Z,5.00
2022-10-16T19:09:11.349Z,6.05
2022-10-16T19:11:41.574Z,2.97
2022-10-16T19:14:11.001Z,4.55
2022-10-16T19:16:38.934Z,4.90
2022-10-16T19:19:08.361Z,5.38
2022-10-16T19:21:40.094Z,5.10
2022-10-16T19:24:10.884Z,3.80
2022-10-16T19:26:41.187Z,5.97
2022-10-16T19:29:11.447Z,5.85
2022-10-16T19:31:39.166Z,3.25
2022-10-16T19:34:07.516Z,5.32
2022-10-16T19:36:38.285Z,4.10
2022-10-16T19:39:12.091Z,5.03
2022-10-16T19:41:39.439Z,5.95
2022-10-16T19:44:11.059Z,5.50
2022-10-16T19:46:39.014Z,6.28
2022-10-16T19:49:09.995Z,11.70
2022-10-16T19:51:37.319Z,7.88
2022-10-16T19:54:09.218Z,9.93
2022-10-16T19:56:37.536Z,7.03
2022-10-16T19:59:07.459Z,8.68
2022-10-16T20:01:35.478Z,9.95
2022-10-16T20:04:03.018Z,9.57
2022-10-16T20:06:30.174Z,7.45
2022-10-16T20:09:03.789Z,10.00
2022-10-16T20:11:33.875Z,8.85
2022-10-16T20:14:01.912Z,10.00
2022-10-16T20:16:30.881Z,8.68
2022-10-16T20:19:03.232Z,8.65
2022-10-16T20:21:33.742Z,9.88
2022-10-16T20:24:04.390Z,8.13
2022-10-16T20:26:31.316Z,6.50
2022-10-16T20:28:59.575Z,10.90
2022-10-16T20:31:30.035Z,8.23
2022-10-16T20:34:01.813Z,7.60
2022-10-16T20:36:30.626Z,12.23
2022-10-16T20:38:57.969Z,7.78
2022-10-16T20:41:25.022Z,8.05
2022-10-16T20:43:52.958Z,8.55
2022-10-16T20:46:26.148Z,7.82
2022-10-16T20:48:55.791Z,8.82
2022-10-16T20:51:31.183Z,7.65
2022-10-16T20:54:01.922Z,8.18
2022-10-16T20:56:31.873Z,8.30
2022-10-16T20:58:59.113Z,9.77
2022-10-16T21:01:29.241Z,9.30
2022-10-16T21:04:00.176Z,7.55
2022-10-16T21:06:27.700Z,7.00
2022-10-16T21:08:55.149Z,7.30
2022-10-16T21:11:27.361Z,8.25
2022-10-16T21:13:58.054Z,7.93
2022-10-16T21:16:26.335Z,8.95
2022-10-16T21:18:54.092Z,9.55
2022-10-16T21:21:31.417Z,7.63
2022-10-16T21:23:59.943Z,6.97
2022-10-16T21:26:28.668Z,7.10
2022-10-16T21:29:06.720Z,7.70
2022-10-16T21:31:34.852Z,7.93
2022-10-16T21:34:02.642Z,9.05
2022-10-16T21:36:33.504Z,11.10
2022-10-16T21:39:26.815Z,8.38
2022-10-16T21:41:53.776Z,8.07
2022-10-16T21:44:20.722Z,7.55
2022-10-16T21:46:50.953Z,7.75
2022-10-16T21:49:19.599Z,6.63
2022-10-16T21:51:51.144Z,6.88
2022-10-16T21:59:55.761Z,8.25
2022-10-16T22:02:22.652Z,6.75
2022-10-16T22:04:49.558Z,7.43
2022-10-16T22:07:16.446Z,12.57
2022-10-16T22:09:43.382Z,7.97
2022-10-16T22:12:10.441Z,6.78
2022-10-16T22:14:39.749Z,7.47
2022-10-16T22:17:06.646Z,7.60
2022-10-16T22:19:33.608Z,7.93
2022-10-16T22:22:01.628Z,6.15
2022-10-16T22:24:28.545Z,7.07
2022-10-16T22:26:55.699Z,7.65
2022-10-16T22:29:22.714Z,13.40
2022-10-16T22:31:53.289Z,7.38
2022-10-16T22:34:20.607Z,11.07
2022-10-16T22:36:50.175Z,6.65
2022-10-16T22:39:17.887Z,7.22
2022-10-16T22:41:44.740Z,6.00
2022-10-16T22:44:13.320Z,11.05
2022-10-16T22:46:40.602Z,7.57
2022-10-16T22:49:07.529Z,7.18
2022-10-16T22:51:34.497Z,7.72
2022-10-16T22:54:01.594Z,7.88
2022-10-16T22:56:28.543Z,7.10
2022-10-16T22:58:55.575Z,10.27
2022-10-16T23:01:31.158Z,6.85
2022-10-16T23:03:58.730Z,5.05
2022-10-16T23:06:25.724Z,8.90
2022-10-16T23:09:00.273Z,7.55
2022-10-16T23:11:29.526Z,11.13
2022-10-16T23:13:56.869Z,7.32
2022-10-16T23:16:25.173Z,9.10
2022-10-16T23:18:52.272Z,6.18
2022-10-16T23:21:23.483Z,6.13
2022-10-16T23:23:53.397Z,5.43
2022-10-16T23:26:24.803Z,6.75
2022-10-16T23:28:51.879Z,6.15
2022-10-16T23:31:19.717Z,7.45
2022-10-16T23:33:46.824Z,6.53
2022-10-16T23:36:17.511Z,5.63
2022-10-16T23:38:45.236Z,8.77
2022-10-16T23:41:13.687Z,5.85
2022-10-16T23:43:40.809Z,5.68
2022-10-16T23:46:10.558Z,8.27
2022-10-16T23:48:38.584Z,6.72
2022-10-16T23:51:09.510Z,5.35
2022-10-16T23:53:36.765Z,5.57
2022-10-16T23:56:03.993Z,12.00
2022-10-16T23:58:31.001Z,4.40
